Aérodrome :
LOGIN :

S'inscrire | Disclaimer

   EN    FR    IT 

 










Légende :    VFR   VFR Marginal   IFR   IFR Intensif   IFR Très Intensif
Visi : 
Plafond : 
>= 8 km
>= 3000ft
5 à 8 km
1000 à 3000 ft
1500m à 5 km
500 à 1000 ft
800 à 1500m
200 à 500 ft
< 800m
< 200 ft
Symboles :   Orages  Brouillard  Fortes neiges  Fortes précipitations  Vent > 20 kt
SIGMETs :   Divers  Orages  Givrage  Turbulence  Onde Orograph.  Cendres Volcan.






- Altitude de l'aérodrome : 22 ft
- Code IATA : TUN


DTTA - Tunis Carthage

DERNIER METAR :
  • 150500Z VRB01KT 9999 FEW026 12/10 Q1019

METARs EXPIRÉS :
  • 150400Z 24003KT 230V340 9999 FEW026 12/10 Q1018
  • 150330Z 28003KT 250V320 9999 FEW026 12/10 Q1018
  • 150300Z 24005KT 9999 FEW026 12/10 Q1019
  • 150230Z 23005KT 200V260 9999 FEW026 12/10 Q1019

TAF TAF DTTA
Valide du 15 à 00h jusqu'au 16 à 00h UTC


142300Z 1500/1524 27011KT 9999 SCT023
BECMG 1500/1502 22005KT



MET'MAP, la Météo Aéronautique d'un coup d'oeil ! - Copyright ORBIFLY Décembre 2007 - Disclaimer

ORBIFLY MET'MAP TEAM :

Programmation & Développement : Alexandra Zaïnal
Sur une idée originale de : Baudouin d'Aumeries
Assistance à la programmation : Marc-Olivier Méhu
Soutien technique & logistique : Manuel Goepfert

Contact : metmap@orbifly.com




SOURCES & CREDITS :

   NOAA